Allakaket, Alaska
Current Conditions -  °F | °C
As of 12:53 AM on Sunday 21 Dec 2014 (Local Time) from PABT Reporting Station
Clear Clear  
Wind Chill: -20°   Ceiling: Unl
Heat Index: -6°   Visibility: 10mi
Dew Point: -12°   Wind: 7mph
Humidity: 75%   Direction: 20°NNE
Pressure: 29.28"   Gusts: NA
Location:  66.57°N, 152.65°W
Report Text: PABT 210953Z 02006KT 10SM CLR M21/M24 A2928 RMK AO2 SLP939 T12111244
Loading
Personal Weather Stations






























Interactive Weather Map New forecast layout! Learn more

10-Day Weather Forecast

Advertisements
Track Severe Weather on mobile